createdAt,value
2023-01-09T00:01:51.871Z,88.36
2023-01-09T00:04:21.940Z,87.46
2023-01-09T00:06:54.333Z,88.09
2023-01-09T00:09:23.878Z,88.63
2023-01-09T00:11:54.918Z,87.95
2023-01-09T00:14:24.445Z,87.78
2023-01-09T00:16:56.251Z,88.30
2023-01-09T00:19:26.315Z,88.19
2023-01-09T00:21:54.807Z,88.24
2023-01-09T00:24:23.270Z,87.85
2023-01-09T00:26:51.764Z,87.98
2023-01-09T00:29:20.447Z,89.03
2023-01-09T00:31:48.875Z,88.11
2023-01-09T00:34:17.361Z,87.44
2023-01-09T00:36:47.236Z,87.36
2023-01-09T00:39:15.745Z,88.17
2023-01-09T00:41:48.240Z,88.66
2023-01-09T00:44:21.583Z,87.79
2023-01-09T00:46:53.534Z,88.00
2023-01-09T00:49:23.150Z,87.55
2023-01-09T00:51:54.875Z,88.21
2023-01-09T00:54:24.093Z,88.24
2023-01-09T00:56:52.583Z,88.14
2023-01-09T00:59:21.070Z,88.90
2023-01-09T01:01:50.070Z,88.36
2023-01-09T01:04:36.112Z,89.47
2023-01-09T01:07:23.128Z,89.40
2023-01-09T01:09:51.804Z,88.83
2023-01-09T01:12:20.314Z,88.64
2023-01-09T01:14:48.860Z,89.23
2023-01-09T01:17:17.309Z,89.97
2023-01-09T01:19:45.789Z,89.11
2023-01-09T01:22:16.109Z,90.19
2023-01-09T01:24:44.809Z,89.77
2023-01-09T01:27:13.240Z,90.16
2023-01-09T01:29:41.622Z,90.61
2023-01-09T01:32:10.243Z,90.68
2023-01-09T01:34:38.968Z,89.74
2023-01-09T01:37:07.403Z,90.77
2023-01-09T01:39:37.404Z,90.43
2023-01-09T01:42:06.759Z,91.07
2023-01-09T01:45:19.740Z,91.03
2023-01-09T01:47:59.101Z,91.18
2023-01-09T01:50:33.531Z,92.09
2023-01-09T01:53:09.302Z,91.17
2023-01-09T01:55:43.834Z,91.06
2023-01-09T01:58:15.883Z,90.90
2023-01-09T02:00:47.021Z,91.38
2023-01-09T02:03:19.697Z,91.01
2023-01-09T02:05:48.481Z,91.59
2023-01-09T02:08:17.602Z,91.88
2023-01-09T02:10:48.325Z,91.04
2023-01-09T02:13:17.152Z,92.48
2023-01-09T02:16:00.236Z,92.42
2023-01-09T02:18:44.075Z,91.74
2023-01-09T02:21:25.421Z,91.54
2023-01-09T02:24:26.205Z,91.71
2023-01-09T02:27:33.094Z,91.91
2023-01-09T02:30:32.328Z,91.66
2023-01-09T02:33:41.067Z,92.03
2023-01-09T02:36:20.013Z,92.68
2023-01-09T02:39:05.860Z,91.49
2023-01-09T02:41:41.677Z,91.72
2023-01-09T02:44:23.893Z,92.90
2023-01-09T02:47:06.218Z,92.42
2023-01-09T02:49:37.275Z,92.34
2023-01-09T02:52:25.806Z,92.92
2023-01-09T02:55:09.237Z,93.24
2023-01-09T02:57:56.583Z,92.47
2023-01-09T03:00:36.213Z,92.78
2023-01-09T03:03:14.180Z,93.53
2023-01-09T03:05:48.959Z,92.92
2023-01-09T03:08:21.308Z,92.78
2023-01-09T03:10:58.075Z,93.53
2023-01-09T03:13:31.309Z,92.92
2023-01-09T03:16:04.659Z,93.33
2023-01-09T03:18:36.307Z,92.97
2023-01-09T03:21:07.915Z,93.21
2023-01-09T03:23:51.537Z,93.22
2023-01-09T03:26:20.829Z,93.35
2023-01-09T03:28:50.335Z,93.23
2023-01-09T03:31:20.016Z,93.43
2023-01-09T03:33:50.336Z,93.45
2023-01-09T03:36:21.414Z,93.41
2023-01-09T03:38:51.518Z,93.29
2023-01-09T03:41:20.810Z,93.25
2023-01-09T03:43:49.569Z,93.44
2023-01-09T03:46:18.299Z,94.00
2023-01-09T03:48:46.833Z,94.07
2023-01-09T03:51:16.785Z,94.10
2023-01-09T03:53:45.445Z,94.07
2023-01-09T03:56:14.030Z,94.56
2023-01-09T03:58:42.665Z,94.16
2023-01-09T04:01:12.897Z,93.51
2023-01-09T04:03:41.957Z,93.84
2023-01-09T04:06:10.742Z,94.24
2023-01-09T04:08:53.826Z,93.65
2023-01-09T04:11:22.606Z,93.88
2023-01-09T04:13:51.471Z,94.27
2023-01-09T04:16:21.532Z,94.51
2023-01-09T04:18:50.082Z,94.05
2023-01-09T04:21:18.623Z,94.24
2023-01-09T04:23:48.486Z,94.26
2023-01-09T04:26:17.075Z,94.34
2023-01-09T04:28:45.677Z,94.35
2023-01-09T04:31:14.313Z,93.87
2023-01-09T04:33:43.241Z,94.26
2023-01-09T04:36:12.142Z,94.21
2023-01-09T04:38:40.720Z,94.20
2023-01-09T04:41:10.653Z,94.47
2023-01-09T04:43:42.379Z,94.87
2023-01-09T04:46:10.978Z,94.40
2023-01-09T04:48:39.556Z,94.20
2023-01-09T04:51:07.988Z,94.59
2023-01-09T04:53:36.431Z,94.69
2023-01-09T04:56:05.082Z,94.50
2023-01-09T04:58:35.002Z,94.74
2023-01-09T05:01:03.673Z,95.42
2023-01-09T05:03:32.240Z,94.14
2023-01-09T05:06:00.635Z,94.32
2023-01-09T05:08:29.063Z,94.15
2023-01-09T05:10:57.681Z,94.50
2023-01-09T05:13:26.266Z,95.08
2023-01-09T05:15:56.532Z,94.67
2023-01-09T05:18:25.257Z,95.30
2023-01-09T05:20:53.857Z,95.17
2023-01-09T05:23:22.322Z,94.78
2023-01-09T05:25:50.873Z,95.29
2023-01-09T05:28:19.538Z,94.98
2023-01-09T05:30:49.155Z,94.81
2023-01-09T05:33:19.002Z,94.67
2023-01-09T05:35:47.600Z,94.63
2023-01-09T05:38:15.996Z,95.31
2023-01-09T05:40:44.478Z,94.88
2023-01-09T05:43:12.979Z,94.84
2023-01-09T05:45:41.440Z,95.02
2023-01-09T05:48:09.982Z,95.46
2023-01-09T05:50:39.913Z,95.03
2023-01-09T05:53:08.316Z,95.42
2023-01-09T05:55:36.858Z,95.79
2023-01-09T05:58:05.378Z,94.93
2023-01-09T06:00:34.177Z,94.92
2023-01-09T06:03:03.267Z,95.09
2023-01-09T06:05:31.742Z,95.52
2023-01-09T06:08:02.023Z,94.81
2023-01-09T06:10:30.456Z,95.15
2023-01-09T06:12:58.825Z,95.48
2023-01-09T06:15:27.374Z,95.51
2023-01-09T06:17:56.081Z,95.73
2023-01-09T06:20:24.622Z,94.94
2023-01-09T06:22:53.339Z,94.95
2023-01-09T06:25:23.336Z,95.44
2023-01-09T06:27:52.960Z,95.86
2023-01-09T06:30:22.127Z,95.41
2023-01-09T06:32:51.620Z,95.60
2023-01-09T06:35:21.019Z,94.87
2023-01-09T06:37:50.915Z,95.39
2023-01-09T06:40:21.256Z,95.80
2023-01-09T06:42:51.474Z,95.85
2023-01-09T06:45:20.531Z,95.45
2023-01-09T06:47:50.228Z,95.13
2023-01-09T06:50:19.331Z,95.50
2023-01-09T06:52:47.870Z,95.74
2023-01-09T06:55:17.785Z,95.21
2023-01-09T06:57:46.430Z,95.89
2023-01-09T07:00:18.611Z,95.40
2023-01-09T07:02:47.262Z,95.67
2023-01-09T07:05:16.637Z,95.17
2023-01-09T07:07:45.209Z,95.42
2023-01-09T07:10:13.829Z,95.47
2023-01-09T07:12:42.300Z,95.71
2023-01-09T07:15:11.943Z,95.59
2023-01-09T07:17:41.908Z,95.95
2023-01-09T07:20:12.526Z,95.63
2023-01-09T07:22:41.103Z,95.48
2023-01-09T07:25:10.110Z,95.47
2023-01-09T07:27:39.991Z,95.50
2023-01-09T07:30:10.262Z,95.58
2023-01-09T07:32:40.540Z,94.74
2023-01-09T07:35:12.099Z,95.54
2023-01-09T07:37:40.673Z,94.87
2023-01-09T07:40:11.075Z,95.75
2023-01-09T07:42:39.849Z,95.32
2023-01-09T07:45:09.720Z,95.24
2023-01-09T07:47:38.065Z,95.15
2023-01-09T07:50:07.623Z,95.24
2023-01-09T07:52:37.586Z,95.64
2023-01-09T07:55:12.727Z,95.17
2023-01-09T07:57:41.501Z,94.89
2023-01-09T08:00:13.454Z,95.60
2023-01-09T08:02:41.971Z,94.81
2023-01-09T08:05:20.234Z,94.91
2023-01-09T08:07:51.624Z,95.48
2023-01-09T08:10:21.204Z,95.49
2023-01-09T08:12:50.397Z,95.34
2023-01-09T08:15:19.112Z,95.05
2023-01-09T08:17:48.408Z,95.59
2023-01-09T08:20:18.848Z,95.19
2023-01-09T08:22:50.808Z,95.65
2023-01-09T08:25:19.991Z,95.72
2023-01-09T08:27:48.857Z,95.26
2023-01-09T08:30:19.067Z,94.92
2023-01-09T08:32:51.232Z,95.39
2023-01-09T08:35:20.623Z,95.54
2023-01-09T08:37:51.115Z,94.94
2023-01-09T08:40:20.067Z,95.51
2023-01-09T08:43:05.908Z,95.24
2023-01-09T08:45:52.057Z,94.51
2023-01-09T08:48:20.467Z,95.18
2023-01-09T08:50:48.912Z,95.43
2023-01-09T08:53:18.727Z,95.13
2023-01-09T08:55:48.000Z,95.30
2023-01-09T08:58:16.483Z,95.21
2023-01-09T09:00:44.973Z,94.91
2023-01-09T09:03:13.483Z,94.50
2023-01-09T09:05:42.010Z,94.79
2023-01-09T09:08:10.502Z,94.95
2023-01-09T09:10:40.861Z,94.76
2023-01-09T09:13:09.365Z,94.87
2023-01-09T09:15:39.104Z,94.23
2023-01-09T09:18:09.352Z,94.30
2023-01-09T09:20:39.943Z,94.27
2023-01-09T09:23:09.384Z,94.50
2023-01-09T09:25:39.583Z,94.03
2023-01-09T09:28:08.555Z,94.32
2023-01-09T09:30:37.178Z,93.67
2023-01-09T09:33:06.479Z,93.95
2023-01-09T09:35:35.550Z,93.88
2023-01-09T09:38:06.595Z,92.71
2023-01-09T09:41:04.784Z,93.57
2023-01-09T09:44:19.210Z,92.72
2023-01-09T09:46:54.383Z,93.05
2023-01-09T09:49:30.563Z,92.93
2023-01-09T09:52:07.476Z,93.33
2023-01-09T09:54:41.814Z,93.18
2023-01-09T09:57:17.650Z,92.37
2023-01-09T09:59:50.989Z,93.08
2023-01-09T10:02:33.142Z,92.41
2023-01-09T10:05:11.741Z,92.94
2023-01-09T10:07:48.165Z,92.37
2023-01-09T10:10:26.458Z,92.60
2023-01-09T10:12:59.055Z,92.34
2023-01-09T10:15:40.114Z,92.15
2023-01-09T10:18:30.932Z,92.80
2023-01-09T10:21:01.717Z,92.03
2023-01-09T10:24:21.079Z,91.64
2023-01-09T10:26:54.237Z,91.95
2023-01-09T10:29:51.839Z,92.04
2023-01-09T10:32:42.662Z,91.67
2023-01-09T10:35:48.542Z,91.51
2023-01-09T10:38:24.135Z,91.82
2023-01-09T10:41:01.599Z,91.57
2023-01-09T10:43:37.427Z,91.29
2023-01-09T10:46:13.467Z,91.61
2023-01-09T10:48:47.371Z,91.63
2023-01-09T10:51:21.545Z,91.77
2023-01-09T10:53:54.137Z,91.63
2023-01-09T10:56:26.497Z,91.40
2023-01-09T10:58:56.924Z,90.81
2023-01-09T11:01:30.536Z,91.10
2023-01-09T11:03:59.276Z,91.58
2023-01-09T11:06:38.191Z,90.66
2023-01-09T11:09:08.041Z,90.44
2023-01-09T11:11:40.788Z,90.54
2023-01-09T11:14:17.692Z,90.58
2023-01-09T11:17:15.171Z,90.34
2023-01-09T11:20:03.883Z,90.71
2023-01-09T11:22:47.378Z,90.22
2023-01-09T11:25:18.605Z,90.62
2023-01-09T11:28:07.165Z,89.87
2023-01-09T11:30:37.061Z,90.09
2023-01-09T11:33:17.234Z,89.77
2023-01-09T11:36:06.547Z,90.69
2023-01-09T11:38:49.895Z,90.26
2023-01-09T11:41:23.443Z,90.40
2023-01-09T11:43:54.810Z,90.37
2023-01-09T11:46:38.660Z,90.51
2023-01-09T11:49:24.136Z,90.41
2023-01-09T11:52:17.254Z,90.68
2023-01-09T11:54:50.732Z,89.97
2023-01-09T11:57:19.608Z,90.97
2023-01-09T11:59:48.122Z,90.27
2023-01-09T12:02:53.736Z,90.69
2023-01-09T12:05:37.976Z,90.12
2023-01-09T12:08:24.930Z,90.55
2023-01-09T12:11:13.863Z,90.54
2023-01-09T12:14:01.070Z,90.28
2023-01-09T12:16:37.924Z,90.86
2023-01-09T12:19:28.662Z,89.98
2023-01-09T12:22:11.654Z,90.84
2023-01-09T12:25:07.938Z,91.03
2023-01-09T12:27:56.763Z,90.66
2023-01-09T12:30:47.788Z,90.41
2023-01-09T12:33:33.889Z,90.93
2023-01-09T12:36:17.825Z,89.93
2023-01-09T12:38:56.882Z,90.15
2023-01-09T12:42:15.415Z,90.81
2023-01-09T12:44:54.660Z,90.03
2023-01-09T12:47:50.366Z,90.75
2023-01-09T12:51:15.124Z,90.71
2023-01-09T12:53:47.871Z,89.73
2023-01-09T12:56:23.233Z,90.58
2023-01-09T12:58:55.671Z,90.34
2023-01-09T13:01:30.631Z,90.44
2023-01-09T13:04:10.813Z,90.10
2023-01-09T13:06:45.437Z,90.67
2023-01-09T13:09:27.152Z,90.49
2023-01-09T13:12:09.132Z,90.36
2023-01-09T13:15:00.227Z,90.24
2023-01-09T13:17:36.405Z,89.59
2023-01-09T13:20:19.627Z,90.48
2023-01-09T13:22:50.910Z,89.61
2023-01-09T13:25:43.402Z,90.22
2023-01-09T13:28:20.466Z,89.66
2023-01-09T13:31:31.713Z,89.94
2023-01-09T13:34:04.548Z,89.60
2023-01-09T13:36:40.025Z,89.95
2023-01-09T13:39:08.767Z,89.71
2023-01-09T13:42:06.818Z,89.92
2023-01-09T13:44:36.832Z,89.92
2023-01-09T13:47:05.831Z,89.17
2023-01-09T13:50:20.853Z,89.50
2023-01-09T13:52:49.544Z,90.03
2023-01-09T13:55:36.007Z,89.97
2023-01-09T13:58:27.314Z,89.39
2023-01-09T14:01:47.513Z,88.95
2023-01-09T14:04:45.466Z,89.35
2023-01-09T14:07:25.126Z,89.64
2023-01-09T14:10:00.679Z,89.17
2023-01-09T14:12:32.377Z,89.29
2023-01-09T14:15:03.297Z,89.68
2023-01-09T14:17:39.185Z,89.40
2023-01-09T14:20:24.885Z,89.41
2023-01-09T14:23:18.198Z,89.36
2023-01-09T14:25:47.556Z,89.02
2023-01-09T14:28:23.974Z,89.47
2023-01-09T14:31:11.122Z,88.67
2023-01-09T14:33:41.019Z,88.77
2023-01-09T14:36:19.520Z,88.96
2023-01-09T14:38:49.719Z,88.95
2023-01-09T14:41:40.459Z,88.81
2023-01-09T14:44:26.264Z,89.51
2023-01-09T14:46:56.207Z,89.28
2023-01-09T14:49:37.498Z,89.64
2023-01-09T14:52:21.681Z,88.96
2023-01-09T14:54:51.542Z,89.96
2023-01-09T14:57:31.067Z,89.92
2023-01-09T15:00:01.389Z,88.87
2023-01-09T15:02:36.236Z,88.80
2023-01-09T15:05:09.618Z,89.52
2023-01-09T15:07:44.602Z,89.31
2023-01-09T15:10:20.192Z,88.92
2023-01-09T15:12:51.651Z,89.70
2023-01-09T15:15:22.001Z,89.89
2023-01-09T15:18:00.346Z,89.36
2023-01-09T15:20:33.432Z,89.56
2023-01-09T15:23:04.307Z,89.79
2023-01-09T15:25:39.995Z,89.50
2023-01-09T15:28:27.034Z,90.06
2023-01-09T15:31:01.141Z,89.58
2023-01-09T15:33:29.963Z,89.80
2023-01-09T15:36:02.642Z,89.40
2023-01-09T15:38:36.156Z,90.37
2023-01-09T15:41:11.120Z,89.29
2023-01-09T15:43:44.441Z,90.05
2023-01-09T15:46:16.617Z,90.01
2023-01-09T15:48:47.396Z,89.97
2023-01-09T15:51:18.668Z,89.99
2023-01-09T15:53:50.313Z,89.97
2023-01-09T15:56:24.269Z,89.54
2023-01-09T15:58:54.105Z,90.11
2023-01-09T16:01:32.607Z,90.46
2023-01-09T16:04:10.785Z,90.02
2023-01-09T16:06:48.140Z,90.98
2023-01-09T16:09:21.155Z,90.80
2023-01-09T16:11:53.424Z,91.09
2023-01-09T16:14:25.167Z,91.26
2023-01-09T16:16:55.258Z,91.09
2023-01-09T16:19:34.571Z,91.31
2023-01-09T16:22:05.379Z,90.73
2023-01-09T16:24:50.865Z,91.69
2023-01-09T16:27:28.776Z,91.44
2023-01-09T16:29:59.646Z,91.17
2023-01-09T16:32:31.005Z,90.98
2023-01-09T16:35:04.617Z,91.08
2023-01-09T16:37:37.535Z,90.92
2023-01-09T16:40:26.574Z,90.56
2023-01-09T16:43:08.568Z,91.00
2023-01-09T16:45:39.487Z,90.92
2023-01-09T16:48:21.759Z,90.47
2023-01-09T16:50:50.365Z,91.57
2023-01-09T16:53:24.250Z,91.08
2023-01-09T16:55:55.343Z,91.06
2023-01-09T16:58:27.598Z,91.07
2023-01-09T17:00:56.496Z,90.86
2023-01-09T17:03:25.605Z,90.88
2023-01-09T17:05:57.429Z,91.35
2023-01-09T17:08:30.609Z,91.14
2023-01-09T17:11:00.046Z,91.66
2023-01-09T17:13:28.949Z,91.82
2023-01-09T17:15:58.524Z,90.72
2023-01-09T17:18:29.630Z,90.60
2023-01-09T17:20:59.783Z,91.36
2023-01-09T17:23:30.726Z,90.82
2023-01-09T17:26:18.183Z,91.43
2023-01-09T17:28:50.970Z,91.67
2023-01-09T17:31:19.938Z,91.46
2023-01-09T17:33:48.462Z,91.03
2023-01-09T17:36:26.588Z,91.48
2023-01-09T17:38:56.728Z,91.43
2023-01-09T17:41:27.682Z,91.26
2023-01-09T17:43:56.224Z,91.68
2023-01-09T17:46:28.748Z,91.23
2023-01-09T17:48:57.549Z,92.04
2023-01-09T17:51:26.264Z,90.97
2023-01-09T17:53:56.818Z,91.17
2023-01-09T17:56:29.686Z,91.52
2023-01-09T17:58:58.461Z,91.41
2023-01-09T18:01:27.468Z,91.21
2023-01-09T18:03:55.878Z,91.04
2023-01-09T18:06:25.017Z,91.55
2023-01-09T18:08:53.721Z,92.26
2023-01-09T18:11:24.992Z,91.79
2023-01-09T18:13:55.199Z,91.62
2023-01-09T18:16:26.498Z,91.80
2023-01-09T18:18:58.378Z,92.01
2023-01-09T18:21:28.607Z,91.62
2023-01-09T18:23:57.924Z,92.01
2023-01-09T18:26:27.801Z,92.40
2023-01-09T18:28:58.960Z,92.16
2023-01-09T18:31:32.325Z,92.23
2023-01-09T18:34:05.270Z,93.23
2023-01-09T18:36:34.105Z,92.58
2023-01-09T18:39:04.951Z,92.65
2023-01-09T18:41:34.857Z,91.88
2023-01-09T18:44:04.019Z,92.12
2023-01-09T18:46:33.165Z,91.74
2023-01-09T18:49:05.019Z,92.64
2023-01-09T18:51:36.097Z,91.92
2023-01-09T18:54:04.861Z,92.82
2023-01-09T18:56:34.794Z,92.70
2023-01-09T18:59:03.212Z,92.69
2023-01-09T19:01:32.721Z,92.59
2023-01-09T19:04:02.081Z,92.86
2023-01-09T19:06:32.261Z,92.36
2023-01-09T19:09:01.230Z,92.83
2023-01-09T19:11:30.019Z,92.62
2023-01-09T19:14:00.010Z,93.22
2023-01-09T19:16:28.803Z,92.65
2023-01-09T19:18:58.345Z,92.95
2023-01-09T19:21:27.433Z,93.04
2023-01-09T19:23:56.032Z,93.19
2023-01-09T19:26:26.521Z,92.77
2023-01-09T19:28:57.897Z,93.18
2023-01-09T19:31:30.188Z,93.49
2023-01-09T19:33:59.720Z,92.79
2023-01-09T19:36:29.663Z,93.70
2023-01-09T19:38:58.580Z,92.89
2023-01-09T19:41:28.180Z,92.99
2023-01-09T19:43:56.966Z,92.39
2023-01-09T19:46:28.590Z,93.33
2023-01-09T19:48:59.101Z,92.77
2023-01-09T19:51:28.103Z,92.92
2023-01-09T19:56:31.217Z,93.12
2023-01-09T19:59:02.364Z,92.83
2023-01-09T20:01:34.967Z,93.35
2023-01-09T20:04:10.096Z,93.21
2023-01-09T20:06:42.498Z,92.62
2023-01-09T20:09:12.445Z,92.80
2023-01-09T20:11:41.784Z,93.70
2023-01-09T20:14:12.959Z,94.12
2023-01-09T20:16:43.720Z,93.79
2023-01-09T20:19:14.975Z,93.36
2023-01-09T20:21:44.322Z,93.10
2023-01-09T20:24:17.389Z,92.68
2023-01-09T20:26:47.563Z,93.17
2023-01-09T20:29:16.924Z,93.33
2023-01-09T20:31:47.052Z,93.07
2023-01-09T20:34:16.413Z,92.61
2023-01-09T20:36:46.425Z,93.34
2023-01-09T20:39:14.971Z,93.06
2023-01-09T20:41:43.469Z,94.06
2023-01-09T20:44:15.723Z,93.86
2023-01-09T20:46:48.353Z,93.84
2023-01-09T20:49:19.543Z,93.52
2023-01-09T20:51:50.933Z,94.11
2023-01-09T20:54:22.446Z,93.42
2023-01-09T20:56:52.400Z,93.53
2023-01-09T20:59:22.380Z,93.74
2023-01-09T21:01:52.498Z,93.79
2023-01-09T21:04:21.741Z,93.59
2023-01-09T21:06:50.645Z,93.70
2023-01-09T21:09:20.410Z,93.59
2023-01-09T21:11:49.108Z,94.20
2023-01-09T21:14:17.716Z,93.49
2023-01-09T21:16:54.216Z,94.40
2023-01-09T21:19:24.894Z,94.05
2023-01-09T21:21:53.830Z,94.04
2023-01-09T21:24:22.261Z,94.08
2023-01-09T21:26:50.740Z,94.31
2023-01-09T21:29:19.322Z,94.02
2023-01-09T21:31:47.764Z,94.02
2023-01-09T21:34:20.157Z,94.33
2023-01-09T21:36:51.097Z,94.16
2023-01-09T21:39:21.701Z,94.30
2023-01-09T21:42:07.577Z,93.78
2023-01-09T21:44:53.790Z,94.12
2023-01-09T21:47:22.985Z,94.38
2023-01-09T21:49:51.781Z,94.11
2023-01-09T21:52:22.212Z,94.38
2023-01-09T21:54:50.722Z,94.28
2023-01-09T21:57:19.428Z,94.15
2023-01-09T21:59:47.821Z,93.84
2023-01-09T22:02:16.957Z,94.03
2023-01-09T22:04:48.940Z,94.41
2023-01-09T22:07:17.773Z,94.11
2023-01-09T22:09:47.917Z,94.60
2023-01-09T22:12:16.503Z,94.38
2023-01-09T22:14:44.957Z,94.55
2023-01-09T22:17:15.981Z,94.88
2023-01-09T22:19:44.691Z,94.77
2023-01-09T22:22:13.195Z,94.47
2023-01-09T22:24:41.764Z,94.72
2023-01-09T22:27:11.845Z,94.62
2023-01-09T22:29:40.564Z,93.81
2023-01-09T22:32:09.756Z,94.69
2023-01-09T22:34:38.203Z,94.77
2023-01-09T22:37:06.670Z,95.06
2023-01-09T22:39:36.215Z,94.40
2023-01-09T22:42:05.297Z,94.90
2023-01-09T22:44:35.451Z,94.65
2023-01-09T22:47:04.014Z,95.29
2023-01-09T22:49:37.318Z,95.36
2023-01-09T22:52:19.963Z,95.10
2023-01-09T22:54:49.188Z,94.78
2023-01-09T22:57:17.785Z,94.87
2023-01-09T22:59:47.820Z,94.73
2023-01-09T23:02:16.854Z,94.72
2023-01-09T23:04:46.318Z,94.90
2023-01-09T23:07:17.692Z,94.84
2023-01-09T23:09:46.847Z,94.51
2023-01-09T23:12:16.358Z,95.18
2023-01-09T23:14:46.274Z,94.93
2023-01-09T23:17:14.964Z,94.26
2023-01-09T23:19:43.629Z,95.13
2023-01-09T23:22:12.290Z,94.63
2023-01-09T23:24:40.990Z,95.22
2023-01-09T23:27:09.504Z,94.89
2023-01-09T23:29:39.728Z,94.54
2023-01-09T23:32:09.732Z,95.00
2023-01-09T23:34:38.476Z,94.51
2023-01-09T23:37:09.218Z,94.41
2023-01-09T23:39:38.015Z,94.75
2023-01-09T23:42:33.338Z,94.24
2023-01-09T23:45:02.055Z,94.66
2023-01-09T23:47:31.995Z,93.82
2023-01-09T23:50:00.691Z,94.74
2023-01-09T23:52:29.315Z,94.32
2023-01-09T23:54:57.825Z,94.45
2023-01-09T23:57:26.693Z,94.37
2023-01-09T23:59:55.438Z,94.95
